WetterOnline ( http://www.wetteronline.de )

Wetter aktuell Freiburg

Aktuelles Wetter: Freiburg/Flugplatz (236m)

6-stündlich | Neueste Meldungen
Ortszeit Temperatur Wetter
Mi, 18.07. 14:00 27.1° C wolkenlos
Mi, 18.07. 8:00 18.7° C wolkenlos
Mi, 18.07. 2:00 17.8° C leicht bewölkt
Di, 17.07. 20:00 26.2° C wolkenlos
Di, 17.07. 14:00 24.6° C wolkig
Di, 17.07. 8:00 19.1° C leicht bewölkt
Di, 17.07. 2:00 15.9° C leicht bewölkt
Mo, 16.07. 20:00 26.9° C leicht bewölkt
Ortszeit Temperatur Wetter
Mi, 18.07. 18:30 28.5° C wolkig
Mi, 18.07. 18:20 28.5° C wolkig
Mi, 18.07. 18:10 28.8° C wolkig
Mi, 18.07. 18:00 29.2° C leicht bewölkt
Mi, 18.07. 17:50 29.2° C wolkig
Mi, 18.07. 17:40 28.7° C leicht bewölkt
Mi, 18.07. 17:30 29.0° C wolkig
Mi, 18.07. 17:00 29.3° C leicht bewölkt
Mi, 18.07. 16:30 29.6° C wolkenlos
Mi, 18.07. 16:00 28.8° C wolkenlos
Mi, 18.07. 15:30 28.8° C wolkenlos
Ortszeit Relative Feuchte Sichtweite
Mi, 18.07. 14:00 42% 7 km
Mi, 18.07. 8:00 68% 29 km
Mi, 18.07. 2:00 79% 30 km
Di, 17.07. 20:00 41% 40 km
Di, 17.07. 14:00 47% 40 km
Di, 17.07. 8:00 70% 35 km
Di, 17.07. 2:00 80% 35 km
Mo, 16.07. 20:00 38% 55 km
Ortszeit Relative Feuchte Sichtweite
Mi, 18.07. 18:30 36% 10 km
Mi, 18.07. 18:20 36% -
Mi, 18.07. 18:10 35% -
Mi, 18.07. 18:00 37% 10 km
Mi, 18.07. 17:50 37% -
Mi, 18.07. 17:40 36% -
Mi, 18.07. 17:30 35% 6 km
Mi, 18.07. 17:00 35% 10 km
Mi, 18.07. 16:30 37% 13 km
Mi, 18.07. 16:00 35% 13 km
Mi, 18.07. 15:30 37% 8 km
Ortszeit Niederschlagsmenge Niederschlagsart
Mi, 18.07. 14:00 0.0 l/m2 in 6 Std. -
Mi, 18.07. 8:00 0.1 l/m2 in 12 Std. -
Mi, 18.07. 2:00 0.1 l/m2 in 6 Std. Regen
Di, 17.07. 20:00 0.1 l/m2 in 12 Std. Regen
Di, 17.07. 14:00 0.0 l/m2 in 6 Std. -
Di, 17.07. 8:00 0.0 l/m2 in 12 Std. -
Di, 17.07. 2:00 0.0 l/m2 in 6 Std. -
Mo, 16.07. 20:00 0.0 l/m2 in 12 Std. -
Ortszeit Niederschlagsmenge Niederschlagsart
Mi, 18.07. 18:30 0.0 l/m2 in 1 Std. -
Mi, 18.07. 18:20 keine Meldung -
Mi, 18.07. 18:10 keine Meldung -
Mi, 18.07. 18:00 0.0 l/m2 in 1 Std. -
Mi, 18.07. 17:50 keine Meldung -
Mi, 18.07. 17:40 keine Meldung -
Mi, 18.07. 17:30 0.0 l/m2 in 1 Std. -
Mi, 18.07. 17:00 0.0 l/m2 in 1 Std. -
Mi, 18.07. 16:30 0.0 l/m2 in 1 Std. -
Mi, 18.07. 16:00 0.0 l/m2 in 1 Std. -
Mi, 18.07. 15:30 0.0 l/m2 in 1 Std. -
Ortszeit Stärke Spitze Richtung
km/h Bft. km/h Grad Sektor
Mi, 18.07. 14:00 9 2 24 330° NW
Mi, 18.07. 8:00 4 1 7 340° N
Mi, 18.07. 2:00 4 1 14 340° N
Di, 17.07. 20:00 7 2 33 310° NW
Di, 17.07. 14:00 24 4 43 260° W
Di, 17.07. 8:00 4 1 7 330° NW
Di, 17.07. 2:00 0 0 18 - -
Mo, 16.07. 20:00 14 3 29 340° N
Ortszeit Stärke Spitze Richtung
km/h Bft. km/h Grad Sektor
Mi, 18.07. 18:30 17 3 24 330° NW
Mi, 18.07. 18:20 17 3 - 330° NW
Mi, 18.07. 18:10 14 3 - 330° NW
Mi, 18.07. 18:00 13 3 26 340° N
Mi, 18.07. 17:50 13 3 - 340° N
Mi, 18.07. 17:40 14 3 - 330° NW
Mi, 18.07. 17:30 14 3 25 330° NW
Mi, 18.07. 17:00 15 3 26 320° NW
Mi, 18.07. 16:30 14 3 25 330° NW
Mi, 18.07. 16:00 13 3 24 350° N
Mi, 18.07. 15:30 14 3 25 330° NW
Ortszeit Untergrenze Bedeckung Gattung
total tief tief mittel hoch
Mi, 18.07. 14:00 - 0/8 0/8 - - -
Mi, 18.07. 8:00 - 0/8 0/8 - - -
Mi, 18.07. 2:00 3300 m 2/8 1/8 - - -
Di, 17.07. 20:00 - 0/8 0/8 - - -
Di, 17.07. 14:00 1800 m 7/8 4/8 - - -
Di, 17.07. 8:00 9000 m 7/8 0/8 - - -
Di, 17.07. 2:00 8700 m 3/8 0/8 - - -
Mo, 16.07. 20:00 10500 m 6/8 0/8 - - -
Ortszeit Bedeckungsgrad in Achtel und Wolkenuntergrenze
Mi, 18.07. 18:30 4(9000m) 6(10500m) 7(10500m)
Mi, 18.07. 18:20 4(9000m) 6(10500m) 7(10500m)
Mi, 18.07. 18:10 3(9000m) 7(9000m) 8(10500m)
Mi, 18.07. 18:00 7(9000m) 7(10500m)
Mi, 18.07. 17:50 7(9000m) 7(10500m)
Mi, 18.07. 17:40 5(9000m) 6(10500m)
Mi, 18.07. 17:30 1(9000m) 7(10500m)
Mi, 18.07. 17:00 3(10500m)
Mi, 18.07. 16:30 1(10500m)
Mi, 18.07. 16:00 keine Wolken
Mi, 18.07. 15:30 keine Wolken
Ortszeit Luftdruck NN (hPa) Tendenz (hPa in 3 Std.)
Mi, 18.07. 14:00 1016 - 1,1
Mi, 18.07. 8:00 1018 + 0,1
Mi, 18.07. 2:00 1018 + 0,2
Di, 17.07. 20:00 1015 + 0,1
Di, 17.07. 14:00 1015 0,0
Di, 17.07. 8:00 1015 + 1,1
Di, 17.07. 2:00 1014 + 1,0
Mo, 16.07. 20:00 1010 - 0,1
Ortszeit Luftdruck NN (hPa) Tendenz (hPa in 3 Std.)
Mi, 18.07. 18:30 1014 - 1,0
Mi, 18.07. 18:20 1014 keine Meldung
Mi, 18.07. 18:10 1014 keine Meldung
Mi, 18.07. 18:00 1014 - 1,0
Mi, 18.07. 17:50 1014 keine Meldung
Mi, 18.07. 17:40 1014 keine Meldung
Mi, 18.07. 17:30 1014 - 1,0
Mi, 18.07. 17:00 1015 - 1,1
Mi, 18.07. 16:30 1015 - 1,2
Mi, 18.07. 16:00 1015 - 1,1
Mi, 18.07. 15:30 1015 - 1,2
Ortszeit Schneehöhe (cm)
Mi, 18.07. 14:00 -
Mi, 18.07. 8:00 -
Mi, 18.07. 2:00 -
Di, 17.07. 20:00 -
Di, 17.07. 14:00 -
Di, 17.07. 8:00 -
Di, 17.07. 2:00 -
Mo, 16.07. 20:00 -
Ortszeit Schneehöhe (cm)
Mi, 18.07. 18:30 -
Mi, 18.07. 18:20 -
Mi, 18.07. 18:10 -
Mi, 18.07. 18:00 -
Mi, 18.07. 17:50 -
Mi, 18.07. 17:40 -
Mi, 18.07. 17:30 -
Mi, 18.07. 17:00 -
Mi, 18.07. 16:30 -
Mi, 18.07. 16:00 -
Mi, 18.07. 15:30 -
Link zu dieser Seite / Seite empfehlen

Das Wetter in ...